Time;durP1;ratioP1;P1;durP2;ratioP2;P2;SDS_P1;SDS_P2;PMS_P1;PMS_P2;Temp;Humidity;BMP_temperature;BMP_pressure;BME280_temperature;BME280_humidity;BME280_pressure;Samples;Min_cycle;Max_cycle;Signal;HPM_P1;HPM_P2
2023/10/27 00:01:05;;;;;;;61.35;35.53;;;9.40;99.90;;;;;;4934144;28;20035;-74
2023/10/27 00:03:31;;;;;;;69.43;37.15;;;9.30;99.90;;;;;;4933079;28;20039;-74
2023/10/27 00:05:57;;;;;;;68.05;38.20;;;9.30;99.90;;;;;;4966949;28;20045;-74
2023/10/27 00:08:22;;;;;;;82.32;41.10;;;9.30;99.90;;;;;;4966466;28;20404;-74
2023/10/27 00:10:48;;;;;;;66.18;37.33;;;9.30;99.90;;;;;;4966954;28;20043;-74
2023/10/27 00:13:14;;;;;;;62.53;36.90;;;9.20;99.90;;;;;;4940693;28;20044;-75
2023/10/27 00:15:40;;;;;;;65.13;37.30;;;9.30;99.90;;;;;;4968446;28;20134;-74
2023/10/27 00:18:06;;;;;;;79.80;41.35;;;9.20;99.90;;;;;;4966563;28;20039;-75
2023/10/27 00:20:32;;;;;;;63.40;37.50;;;9.20;99.90;;;;;;4964695;28;20293;-75
2023/10/27 00:22:57;;;;;;;62.58;37.00;;;9.20;99.90;;;;;;4967479;28;20054;-75
2023/10/27 00:25:24;;;;;;;65.20;37.03;;;9.20;99.90;;;;;;4952606;28;20043;-74
2023/10/27 00:27:50;;;;;;;74.88;39.47;;;9.20;99.90;;;;;;4958258;28;20551;-74
2023/10/27 00:30:16;;;;;;;57.55;34.13;;;9.20;99.90;;;;;;4950202;28;20051;-75
2023/10/27 00:32:43;;;;;;;61.30;36.63;;;9.20;99.90;;;;;;4976210;28;20058;-74
2023/10/27 00:35:09;;;;;;;66.82;38.08;;;9.20;99.90;;;;;;4966395;28;20053;-74
2023/10/27 00:37:36;;;;;;;61.80;34.92;;;9.20;99.90;;;;;;4964998;28;20043;-74
2023/10/27 00:40:03;;;;;;;63.67;36.17;;;9.20;99.90;;;;;;4934068;28;20035;-75
2023/10/27 00:42:28;;;;;;;62.50;35.83;;;9.20;99.90;;;;;;4967067;28;20089;-75
2023/10/27 00:44:54;;;;;;;62.40;36.22;;;9.20;99.90;;;;;;4968163;28;20043;-75
2023/10/27 00:47:20;;;;;;;63.13;35.78;;;9.20;99.90;;;;;;4968411;28;20047;-74
2023/10/27 00:49:47;;;;;;;63.97;35.38;;;9.60;99.90;;;;;;4960876;28;20656;-75
2023/10/27 00:52:14;;;;;;;54.55;33.33;;;9.20;99.90;;;;;;4965492;28;20435;-75
2023/10/27 00:54:40;;;;;;;70.55;36.63;;;9.20;99.90;;;;;;4959016;28;20042;-75
2023/10/27 00:57:07;;;;;;;64.20;35.50;;;9.20;99.90;;;;;;4954130;28;20038;-75
2023/10/27 00:59:34;;;;;;;53.80;31.95;;;9.20;99.90;;;;;;4953692;28;20034;-74
2023/10/27 01:01:59;;;;;;;64.40;35.25;;;9.20;99.90;;;;;;4959614;28;20030;-74
2023/10/27 01:04:25;;;;;;;56.95;31.45;;;9.20;99.90;;;;;;4961288;28;20030;-74
2023/10/27 01:06:52;;;;;;;53.10;29.63;;;9.20;99.90;;;;;;4968648;28;20301;-74
2023/10/27 01:09:18;;;;;;;51.45;30.00;;;9.20;99.90;;;;;;4968557;28;20031;-74
2023/10/27 01:11:45;;;;;;;52.47;29.85;;;9.20;99.90;;;;;;4949938;28;20081;-75
2023/10/27 01:14:11;;;;;;;50.53;28.90;;;9.20;99.90;;;;;;4967305;28;20059;-75
2023/10/27 01:16:37;;;;;;;44.60;27.88;;;9.20;99.90;;;;;;4951901;28;20043;-75
2023/10/27 01:19:03;;;;;;;46.40;27.05;;;9.20;99.90;;;;;;4950271;28;20074;-74
2023/10/27 01:21:29;;;;;;;52.75;27.55;;;9.20;99.90;;;;;;4952280;28;20516;-74
2023/10/27 01:23:55;;;;;;;46.92;26.80;;;9.10;99.90;;;;;;4936768;28;20117;-74
2023/10/27 01:26:20;;;;;;;57.83;29.27;;;9.20;99.90;;;;;;4967106;28;20038;-74
2023/10/27 01:28:46;;;;;;;47.72;28.08;;;9.20;99.90;;;;;;4953247;28;20039;-74
2023/10/27 01:31:12;;;;;;;49.63;29.15;;;9.20;99.90;;;;;;4969416;28;20046;-73
2023/10/27 01:33:38;;;;;;;51.10;28.02;;;9.10;99.90;;;;;;4953066;28;20039;-74
2023/10/27 01:36:04;;;;;;;47.40;27.33;;;9.20;99.90;;;;;;4967650;28;20034;-73
2023/10/27 01:38:30;;;;;;;49.60;27.80;;;9.10;99.90;;;;;;4952904;28;20043;-74
2023/10/27 01:40:56;;;;;;;58.55;30.17;;;9.10;99.90;;;;;;4969069;28;20100;-75
2023/10/27 01:43:22;;;;;;;52.38;28.08;;;9.20;99.90;;;;;;4952450;28;20214;-75
2023/10/27 01:45:47;;;;;;;51.63;28.48;;;9.20;99.90;;;;;;4952771;28;20089;-73
2023/10/27 01:48:13;;;;;;;50.55;28.65;;;9.20;99.90;;;;;;4968088;28;20047;-74
2023/10/27 01:50:39;;;;;;;55.38;28.98;;;9.20;99.90;;;;;;4968412;28;20050;-74
2023/10/27 01:53:04;;;;;;;55.63;29.42;;;9.20;99.90;;;;;;4953287;28;20043;-75
2023/10/27 01:55:30;;;;;;;55.83;29.52;;;9.20;99.90;;;;;;4976002;28;20492;-75
2023/10/27 01:57:57;;;;;;;51.30;28.20;;;9.20;99.90;;;;;;4948731;28;20126;-75
2023/10/27 02:00:23;;;;;;;51.05;29.20;;;9.20;99.90;;;;;;4953396;28;20042;-75
2023/10/27 02:02:48;;;;;;;52.00;28.27;;;9.20;99.90;;;;;;4968485;28;20060;-74
2023/10/27 02:05:14;;;;;;;47.65;27.98;;;9.20;99.90;;;;;;4951869;28;20051;-74
2023/10/27 02:07:40;;;;;;;54.95;29.10;;;9.20;99.90;;;;;;4962338;28;20065;-74
2023/10/27 02:10:06;;;;;;;55.20;28.52;;;9.20;99.90;;;;;;4953221;28;20085;-75
2023/10/27 02:12:32;;;;;;;52.40;28.77;;;9.20;99.90;;;;;;4958197;28;20610;-74
2023/10/27 02:14:58;;;;;;;45.75;27.05;;;9.20;99.90;;;;;;4968690;28;20054;-74
2023/10/27 02:17:23;;;;;;;55.70;28.70;;;9.20;99.90;;;;;;4952736;28;20043;-74
2023/10/27 02:19:50;;;;;;;45.78;25.73;;;9.20;99.90;;;;;;4943494;28;20118;-75
2023/10/27 02:22:17;;;;;;;46.38;26.77;;;9.20;99.90;;;;;;4945895;28;20484;-75
2023/10/27 02:24:43;;;;;;;48.08;26.98;;;9.30;99.90;;;;;;4965484;28;20433;-75
2023/10/27 02:27:09;;;;;;;51.58;27.15;;;9.20;99.90;;;;;;4952652;28;20038;-75
2023/10/27 02:29:35;;;;;;;50.78;26.77;;;9.30;99.90;;;;;;4952199;28;20032;-75
2023/10/27 02:32:01;;;;;;;48.42;26.25;;;9.30;99.90;;;;;;4950408;28;20035;-75
2023/10/27 02:34:26;;;;;;;46.47;26.35;;;9.30;99.90;;;;;;4934787;28;20038;-75
2023/10/27 02:36:52;;;;;;;44.45;25.95;;;9.30;99.90;;;;;;4959488;28;20070;-73
2023/10/27 02:39:18;;;;;;;43.40;26.35;;;9.30;99.90;;;;;;4950354;28;20042;-74
2023/10/27 02:41:43;;;;;;;50.30;28.25;;;9.30;99.90;;;;;;4951984;28;20038;-74
2023/10/27 02:44:09;;;;;;;48.00;26.33;;;9.30;99.90;;;;;;4951736;28;20027;-74
2023/10/27 02:46:35;;;;;;;42.30;25.08;;;9.30;99.90;;;;;;4967657;28;20046;-74
2023/10/27 02:49:05;;;;;;;45.08;25.45;;;9.30;99.90;;;;;;4967747;28;20085;-74
2023/10/27 02:51:31;;;;;;;47.63;26.92;;;9.30;99.90;;;;;;4968502;28;20125;-74
2023/10/27 02:53:57;;;;;;;52.63;27.42;;;9.30;99.90;;;;;;4964720;28;20090;-74
2023/10/27 02:56:23;;;;;;;48.05;26.60;;;9.30;99.90;;;;;;4967898;28;20082;-75
2023/10/27 02:58:49;;;;;;;47.30;25.20;;;9.20;99.90;;;;;;4966570;28;20047;-75
2023/10/27 03:01:15;;;;;;;42.70;25.17;;;9.20;99.90;;;;;;4966743;28;20127;-74
2023/10/27 03:03:42;;;;;;;43.45;25.15;;;9.20;99.90;;;;;;4976867;28;20127;-75
2023/10/27 03:06:08;;;;;;;46.13;25.23;;;9.20;99.90;;;;;;4948425;28;20039;-75
2023/10/27 03:08:34;;;;;;;48.13;26.05;;;9.20;99.90;;;;;;4964356;28;20038;-74
2023/10/27 03:11:00;;;;;;;50.20;27.40;;;9.20;99.90;;;;;;4967654;28;20046;-74
2023/10/27 03:13:30;;;;;;;46.13;24.15;;;9.20;99.90;;;;;;4967370;28;20058;-74
2023/10/27 03:15:58;;;;;;;51.72;26.60;;;9.20;99.90;;;;;;4964910;28;20042;-75
2023/10/27 03:18:24;;;;;;;42.05;24.08;;;9.20;99.90;;;;;;4967776;28;20126;-74
2023/10/27 03:21:00;;;;;;;45.47;24.92;;;9.20;99.90;;;;;;4957137;28;20832;-73
2023/10/27 03:23:27;;;;;;;45.58;24.83;;;9.20;99.90;;;;;;4981061;28;21542;-74
2023/10/27 03:25:58;;;;;;;47.05;24.95;;;9.20;99.90;;;;;;4967857;28;20523;-74
2023/10/27 03:28:24;;;;;;;49.33;25.85;;;9.20;99.90;;;;;;4951359;28;20043;-74
2023/10/27 03:30:49;;;;;;;45.13;24.27;;;9.20;99.90;;;;;;4951171;28;20129;-74
2023/10/27 03:33:16;;;;;;;43.72;23.83;;;9.10;99.90;;;;;;4943285;28;20130;-75
2023/10/27 03:35:45;;;;;;;48.38;26.20;;;9.10;99.90;;;;;;4968217;28;20079;-74
2023/10/27 03:38:11;;;;;;;47.05;24.38;;;9.10;99.90;;;;;;4958258;28;20049;-74
2023/10/27 03:40:38;;;;;;;44.15;24.02;;;9.10;99.90;;;;;;4969595;28;20035;-74
2023/10/27 03:43:04;;;;;;;43.88;24.02;;;9.10;99.90;;;;;;4958221;28;20164;-74
2023/10/27 03:45:30;;;;;;;45.58;24.30;;;9.10;99.90;;;;;;4966267;28;20152;-74
2023/10/27 03:47:55;;;;;;;43.20;24.02;;;9.10;99.90;;;;;;4934913;28;20147;-74
2023/10/27 03:50:21;;;;;;;41.10;24.02;;;9.10;99.90;;;;;;4936830;28;20155;-75
2023/10/27 03:52:47;;;;;;;43.13;24.17;;;9.10;99.90;;;;;;4967848;28;20050;-73
2023/10/27 03:55:12;;;;;;;42.03;24.25;;;9.10;99.90;;;;;;4957018;28;20046;-74
2023/10/27 03:57:40;;;;;;;39.95;22.35;;;9.10;99.90;;;;;;4951392;28;20051;-75
2023/10/27 04:00:07;;;;;;;40.08;22.05;;;9.10;99.90;;;;;;4950548;28;20043;-74
2023/10/27 04:02:33;;;;;;;42.40;23.33;;;9.10;99.90;;;;;;4933083;28;20039;-75
2023/10/27 04:04:59;;;;;;;38.22;21.95;;;9.00;99.90;;;;;;4964587;28;20084;-73
2023/10/27 04:07:29;;;;;;;41.78;23.65;;;9.10;99.90;;;;;;4950576;28;20042;-74
2023/10/27 04:09:54;;;;;;;41.15;23.58;;;9.10;99.90;;;;;;4967247;28;20046;-74
2023/10/27 04:12:20;;;;;;;38.75;22.80;;;9.00;99.90;;;;;;4934059;28;20043;-74
2023/10/27 04:14:48;;;;;;;35.53;21.48;;;9.10;99.90;;;;;;4975943;28;20065;-75
2023/10/27 04:17:14;;;;;;;43.10;23.15;;;9.10;99.90;;;;;;4956978;28;20061;-75
2023/10/27 04:19:41;;;;;;;40.67;22.77;;;9.00;99.90;;;;;;4952485;28;20031;-73
2023/10/27 04:22:07;;;;;;;37.50;22.10;;;9.00;99.90;;;;;;4970639;28;20054;-75
2023/10/27 04:24:33;;;;;;;36.13;21.20;;;9.00;99.90;;;;;;4953373;28;20035;-75
2023/10/27 04:26:58;;;;;;;39.17;22.65;;;9.00;99.90;;;;;;4963614;28;20053;-75
2023/10/27 04:29:24;;;;;;;35.75;21.63;;;9.00;99.90;;;;;;4954513;28;20114;-75
2023/10/27 04:31:50;;;;;;;41.53;22.38;;;9.00;99.90;;;;;;4971145;28;20105;-73
2023/10/27 04:34:15;;;;;;;40.85;23.00;;;9.00;99.90;;;;;;4954479;28;20835;-74
2023/10/27 04:36:41;;;;;;;42.90;23.45;;;9.00;99.90;;;;;;4970874;28;20082;-74
2023/10/27 04:39:07;;;;;;;46.95;23.98;;;9.00;99.90;;;;;;4970940;28;20045;-76
2023/10/27 04:41:33;;;;;;;42.75;24.20;;;9.00;99.90;;;;;;4969303;28;20034;-75
2023/10/27 04:43:58;;;;;;;40.50;22.48;;;8.90;99.90;;;;;;4969811;28;20043;-75
2023/10/27 04:46:24;;;;;;;38.78;23.15;;;8.90;99.90;;;;;;4938720;28;20046;-74
2023/10/27 04:48:50;;;;;;;42.13;23.42;;;8.90;99.90;;;;;;4961164;28;20073;-73
2023/10/27 04:51:16;;;;;;;39.72;23.15;;;8.90;99.90;;;;;;4961303;28;20078;-74
2023/10/27 04:53:42;;;;;;;43.97;23.05;;;9.00;99.90;;;;;;4970824;28;20042;-74
2023/10/27 04:56:07;;;;;;;49.80;23.65;;;8.90;99.90;;;;;;4969191;28;20774;-74
2023/10/27 04:58:33;;;;;;;45.17;24.15;;;8.90;99.90;;;;;;4978111;28;20109;-75
2023/10/27 05:00:59;;;;;;;44.35;24.33;;;8.90;99.90;;;;;;4959462;28;20070;-75
2023/10/27 05:03:25;;;;;;;46.67;25.25;;;8.90;99.90;;;;;;4966519;28;20039;-73
2023/10/27 05:05:51;;;;;;;49.47;26.95;;;8.90;99.90;;;;;;4970616;28;20042;-74
2023/10/27 05:08:16;;;;;;;44.47;25.55;;;8.90;99.90;;;;;;4935371;28;20670;-75
2023/10/27 05:10:42;;;;;;;47.90;27.13;;;8.90;99.90;;;;;;4967835;28;20039;-75
2023/10/27 05:13:08;;;;;;;47.10;26.10;;;8.90;99.90;;;;;;4937383;28;20047;-73
2023/10/27 05:15:34;;;;;;;46.17;26.15;;;8.90;99.90;;;;;;4959157;28;20085;-73
2023/10/27 05:18:04;;;;;;;54.75;28.95;;;8.90;99.90;;;;;;4949091;28;20122;-74
2023/10/27 05:20:37;;;;;;;49.08;27.63;;;8.80;99.90;;;;;;4976644;28;20039;-73
2023/10/27 05:23:03;;;;;;;53.83;28.50;;;8.80;99.90;;;;;;4970603;28;20097;-74
2023/10/27 05:25:29;;;;;;;44.72;27.08;;;8.80;99.90;;;;;;4961287;28;20089;-74
2023/10/27 05:27:55;;;;;;;54.97;28.85;;;8.80;99.90;;;;;;4969839;28;20054;-75
2023/10/27 05:30:20;;;;;;;43.75;26.40;;;8.80;99.90;;;;;;4953800;28;20569;-75
2023/10/27 05:32:46;;;;;;;44.63;26.75;;;8.80;99.90;;;;;;4967736;28;20070;-74
2023/10/27 05:35:12;;;;;;;47.22;27.58;;;8.80;99.90;;;;;;4962272;28;20074;-74
2023/10/27 05:37:37;;;;;;;47.67;27.65;;;8.80;99.90;;;;;;4953100;28;20035;-74
2023/10/27 05:40:04;;;;;;;51.85;27.33;;;8.80;99.90;;;;;;4969739;28;20043;-75
2023/10/27 05:42:30;;;;;;;45.42;27.00;;;8.80;99.90;;;;;;4936355;28;20035;-75
2023/10/27 05:44:56;;;;;;;52.15;28.67;;;8.80;99.90;;;;;;4949170;28;20094;-74
2023/10/27 05:47:21;;;;;;;49.88;28.55;;;8.80;99.90;;;;;;4942973;28;20039;-74
2023/10/27 05:49:47;;;;;;;41.97;26.40;;;8.80;99.90;;;;;;4969127;28;20042;-74
2023/10/27 05:52:14;;;;;;;45.40;27.42;;;8.80;99.90;;;;;;4969040;28;20117;-73
2023/10/27 05:54:40;;;;;;;47.00;27.55;;;8.80;99.90;;;;;;4967992;28;20035;-74
2023/10/27 05:57:08;;;;;;;48.70;27.60;;;8.70;99.90;;;;;;4968823;28;20042;-75
2023/10/27 05:59:36;;;;;;;48.50;28.08;;;8.80;99.90;;;;;;4955191;28;20043;-74
2023/10/27 06:02:02;;;;;;;48.05;28.40;;;8.70;99.90;;;;;;4968136;28;20046;-74
2023/10/27 06:04:27;;;;;;;49.40;27.92;;;8.70;99.90;;;;;;4970697;28;20718;-74
2023/10/27 06:06:53;;;;;;;49.47;28.73;;;8.70;99.90;;;;;;4970441;28;20514;-74
2023/10/27 06:09:19;;;;;;;45.78;27.13;;;8.80;99.90;;;;;;4955062;28;20408;-75
2023/10/27 06:11:44;;;;;;;51.25;29.10;;;8.80;99.90;;;;;;4953791;28;20232;-73
2023/10/27 06:14:10;;;;;;;50.70;28.23;;;8.80;99.90;;;;;;4969796;28;20157;-74
2023/10/27 06:16:36;;;;;;;53.08;29.15;;;8.70;99.90;;;;;;4963812;28;20047;-73
2023/10/27 06:19:03;;;;;;;55.17;28.70;;;8.70;99.90;;;;;;4934822;28;20053;-74
2023/10/27 06:21:29;;;;;;;54.45;28.52;;;8.80;99.90;;;;;;4938008;28;20493;-73
2023/10/27 06:23:54;;;;;;;49.53;28.63;;;8.80;99.90;;;;;;4936874;28;20136;-74
2023/10/27 06:26:20;;;;;;;59.05;29.00;;;8.80;99.90;;;;;;4952769;28;20607;-73
2023/10/27 06:28:46;;;;;;;47.08;27.58;;;8.80;99.90;;;;;;4953614;28;20038;-73
2023/10/27 06:31:12;;;;;;;52.78;27.88;;;8.80;99.90;;;;;;4936653;28;20034;-74
2023/10/27 06:33:37;;;;;;;53.83;27.88;;;8.70;99.90;;;;;;4979451;28;20046;-74
2023/10/27 06:36:04;;;;;;;51.45;26.95;;;8.70;99.90;;;;;;4950114;28;20122;-73
2023/10/27 06:38:30;;;;;;;45.65;25.05;;;8.70;99.90;;;;;;4971562;28;20040;-74
2023/10/27 06:40:55;;;;;;;46.45;25.67;;;8.70;99.90;;;;;;4951564;28;20053;-75
2023/10/27 06:43:21;;;;;;;45.60;24.45;;;8.70;99.90;;;;;;4964738;28;20047;-75
2023/10/27 06:45:47;;;;;;;43.70;24.73;;;8.70;99.90;;;;;;4949105;28;20205;-75
2023/10/27 06:48:13;;;;;;;46.78;26.17;;;8.70;99.90;;;;;;4966638;28;20031;-77
2023/10/27 06:50:38;;;;;;;48.55;25.15;;;8.70;99.90;;;;;;4953002;28;20043;-77
2023/10/27 06:53:04;;;;;;;43.63;24.48;;;8.70;99.90;;;;;;4937494;28;20065;-77
2023/10/27 06:55:30;;;;;;;49.17;25.17;;;8.70;99.90;;;;;;4952515;28;20130;-77
2023/10/27 06:57:56;;;;;;;46.33;25.63;;;8.80;99.90;;;;;;4963073;28;20126;-77
2023/10/27 07:00:22;;;;;;;47.25;25.20;;;8.80;99.90;;;;;;4970439;28;20399;-78
2023/10/27 07:02:48;;;;;;;49.92;25.77;;;8.80;99.90;;;;;;4962279;28;20034;-79
2023/10/27 07:05:16;;;;;;;49.15;24.90;;;8.80;99.90;;;;;;4954973;28;20488;-79
2023/10/27 07:07:43;;;;;;;43.53;24.50;;;8.70;99.90;;;;;;4969811;28;20046;-77
2023/10/27 07:10:09;;;;;;;50.42;26.52;;;8.70;99.90;;;;;;4948874;28;20567;-77
2023/10/27 07:12:35;;;;;;;48.10;26.80;;;8.80;99.90;;;;;;4971266;28;20097;-77
2023/10/27 07:15:01;;;;;;;47.00;24.95;;;8.80;99.90;;;;;;4953881;28;20062;-77
2023/10/27 07:17:26;;;;;;;47.72;25.58;;;8.80;99.90;;;;;;4966294;28;20070;-75
2023/10/27 07:19:52;;;;;;;45.22;25.38;;;8.80;99.90;;;;;;4966440;28;20042;-75
2023/10/27 07:22:19;;;;;;;48.70;25.80;;;8.80;99.90;;;;;;4968582;28;20074;-74
2023/10/27 07:24:45;;;;;;;50.63;26.73;;;8.80;99.90;;;;;;4951506;28;20077;-74
2023/10/27 07:27:11;;;;;;;45.70;25.88;;;8.80;99.90;;;;;;4955817;28;20051;-74
2023/10/27 07:29:37;;;;;;;50.30;26.60;;;8.90;99.90;;;;;;4933350;28;20053;-75
2023/10/27 07:32:03;;;;;;;51.10;26.23;;;8.90;99.90;;;;;;4967920;28;20030;-76
2023/10/27 07:34:29;;;;;;;45.38;26.02;;;8.90;99.90;;;;;;4966946;28;20074;-75
2023/10/27 07:36:55;;;;;;;46.92;25.90;;;8.90;99.90;;;;;;4934796;28;20066;-75
2023/10/27 07:39:22;;;;;;;44.53;26.08;;;8.90;99.90;;;;;;4931885;28;20564;-74
2023/10/27 07:41:51;;;;;;;43.88;25.25;;;8.90;99.90;;;;;;4948807;28;20076;-75
2023/10/27 07:44:17;;;;;;;47.63;24.35;;;9.00;99.90;;;;;;4944699;28;20046;-74
2023/10/27 07:46:44;;;;;;;41.95;25.25;;;8.90;99.90;;;;;;4933726;28;20459;-77
2023/10/27 07:49:10;;;;;;;41.63;24.35;;;9.00;99.90;;;;;;4936042;28;20038;-76
2023/10/27 07:51:36;;;;;;;38.88;23.70;;;9.00;99.90;;;;;;4950392;28;20054;-82
2023/10/27 07:54:03;;;;;;;47.45;25.58;;;9.00;99.90;;;;;;4950098;28;20048;-77
2023/10/27 07:56:30;;;;;;;38.90;23.23;;;9.00;99.90;;;;;;4947218;28;20047;-76
2023/10/27 07:58:55;;;;;;;39.33;23.05;;;9.00;99.90;;;;;;4934279;28;20061;-76
2023/10/27 08:01:21;;;;;;;40.35;23.70;;;9.00;99.90;;;;;;4933511;28;20034;-74
2023/10/27 08:03:47;;;;;;;40.40;23.58;;;9.00;99.90;;;;;;4967262;28;20035;-76
2023/10/27 08:06:13;;;;;;;41.03;23.40;;;9.00;99.90;;;;;;4906139;28;20820;-76
2023/10/27 08:08:40;;;;;;;37.83;22.60;;;9.10;99.90;;;;;;4938931;28;20042;-76
2023/10/27 08:11:06;;;;;;;41.30;22.70;;;9.10;99.90;;;;;;4951528;28;20050;-76
2023/10/27 08:13:32;;;;;;;36.28;22.85;;;9.10;99.90;;;;;;4941205;28;20402;-76
2023/10/27 08:16:02;;;;;;;35.90;22.40;;;9.10;99.90;;;;;;4949980;28;20051;-76
2023/10/27 08:18:27;;;;;;;35.10;21.83;;;9.10;99.90;;;;;;4948328;28;20368;-74
2023/10/27 08:20:55;;;;;;;36.00;21.83;;;9.10;99.90;;;;;;4931966;28;20050;-75
2023/10/27 08:23:21;;;;;;;36.85;22.15;;;9.20;99.90;;;;;;4948815;28;20411;-74
2023/10/27 08:25:51;;;;;;;35.45;21.75;;;9.20;99.90;;;;;;4951796;28;20044;-75
2023/10/27 08:28:17;;;;;;;37.25;21.75;;;9.20;99.90;;;;;;4935565;28;20102;-75
2023/10/27 08:30:44;;;;;;;36.95;21.95;;;9.20;99.90;;;;;;4966766;28;20042;-76
2023/10/27 08:33:10;;;;;;;35.22;21.10;;;9.20;99.90;;;;;;4933788;28;20116;-77
2023/10/27 08:35:35;;;;;;;40.60;22.52;;;9.20;99.90;;;;;;4921203;28;20046;-76
2023/10/27 08:38:01;;;;;;;40.47;22.38;;;9.20;99.90;;;;;;4943823;28;20118;-77
2023/10/27 08:40:28;;;;;;;38.58;23.55;;;9.20;99.90;;;;;;4952158;28;20488;-75
2023/10/27 08:42:55;;;;;;;40.83;23.20;;;9.30;99.90;;;;;;4933734;28;20050;-75
2023/10/27 08:45:22;;;;;;;37.17;22.10;;;9.30;99.90;;;;;;4933848;28;20188;-74
2023/10/27 08:47:48;;;;;;;36.78;23.40;;;9.30;99.90;;;;;;4920287;28;20109;-73
2023/10/27 08:50:13;;;;;;;39.40;23.30;;;9.30;99.90;;;;;;4946812;28;20042;-75
2023/10/27 08:52:39;;;;;;;45.20;24.35;;;9.40;99.90;;;;;;4949669;28;20140;-77
2023/10/27 08:55:10;;;;;;;39.33;24.35;;;9.30;99.90;;;;;;4948643;28;20082;-76
2023/10/27 08:57:37;;;;;;;44.97;23.67;;;9.30;99.90;;;;;;4962769;28;20043;-77
2023/10/27 09:00:07;;;;;;;40.30;23.42;;;9.30;99.90;;;;;;4937155;28;20043;-75
2023/10/27 09:02:35;;;;;;;40.17;23.50;;;9.40;99.90;;;;;;4932008;28;20048;-76
2023/10/27 09:05:09;;;;;;;41.92;24.48;;;9.40;99.90;;;;;;4937785;28;20081;-75
2023/10/27 09:07:35;;;;;;;48.22;26.10;;;9.40;99.90;;;;;;4954622;28;20038;-76
2023/10/27 09:10:03;;;;;;;43.10;22.95;;;9.40;99.90;;;;;;4938441;28;20253;-76
2023/10/27 09:12:30;;;;;;;37.85;23.70;;;9.50;99.90;;;;;;4950202;28;20047;-79
2023/10/27 09:15:22;;;;;;;39.42;22.85;;;9.50;99.90;;;;;;4951205;28;20560;-79
2023/10/27 09:17:58;;;;;;;42.10;23.10;;;9.50;99.90;;;;;;4940856;28;20085;-77
2023/10/27 09:20:26;;;;;;;37.72;24.13;;;9.50;99.90;;;;;;4967053;28;20034;-83
2023/10/27 09:23:05;;;;;;;40.50;23.35;;;9.50;99.90;;;;;;4968703;28;20041;-74
2023/10/27 09:25:32;;;;;;;40.85;23.20;;;9.60;99.90;;;;;;4953984;28;20035;-76
2023/10/27 09:28:00;;;;;;;37.25;22.55;;;9.60;99.90;;;;;;4967471;28;20057;-78
2023/10/27 09:30:34;;;;;;;42.88;24.23;;;9.60;99.90;;;;;;4969126;28;20130;-75
2023/10/27 09:33:10;;;;;;;41.55;23.42;;;9.60;99.90;;;;;;4949039;29;20094;-76
2023/10/27 09:35:36;;;;;;;43.75;23.90;;;9.60;99.90;;;;;;4968634;28;20413;-75
2023/10/27 09:38:03;;;;;;;42.47;24.48;;;9.60;99.90;;;;;;4955278;28;20043;-76
2023/10/27 09:40:28;;;;;;;38.17;23.60;;;9.60;99.90;;;;;;4951282;28;20594;-77
2023/10/27 09:42:58;;;;;;;44.90;23.90;;;9.60;99.90;;;;;;4938434;28;20043;-74
2023/10/27 09:45:27;;;;;;;40.08;23.83;;;9.70;99.90;;;;;;4967952;28;20102;-76
2023/10/27 09:48:02;;;;;;;42.00;24.15;;;9.70;99.90;;;;;;4964421;28;20050;-77
2023/10/27 09:50:29;;;;;;;41.17;24.10;;;9.80;99.90;;;;;;4954604;28;20043;-76
2023/10/27 09:52:58;;;;;;;37.03;22.95;;;9.70;99.90;;;;;;4971718;28;20105;-76
2023/10/27 09:55:26;;;;;;;38.97;23.30;;;9.80;99.90;;;;;;4975997;28;20086;-75
2023/10/27 09:57:52;;;;;;;42.58;23.98;;;9.80;99.90;;;;;;4965087;28;20046;-76
2023/10/27 10:00:20;;;;;;;45.42;24.77;;;9.80;99.90;;;;;;4969326;28;20035;-76
2023/10/27 10:02:47;;;;;;;40.75;22.95;;;9.80;99.90;;;;;;4971045;28;20099;-75
2023/10/27 10:05:12;;;;;;;45.95;25.05;;;9.80;99.90;;;;;;4964435;28;20034;-76
2023/10/27 10:07:44;;;;;;;45.20;24.42;;;9.80;99.90;;;;;;4937692;28;20062;-76
2023/10/27 10:10:34;;;;;;;51.50;27.55;;;9.80;99.90;;;;;;4970656;28;20117;-76
2023/10/27 10:13:16;;;;;;;41.67;24.48;;;9.80;99.90;;;;;;4954077;28;20417;-76
2023/10/27 10:15:43;;;;;;;44.00;25.35;;;9.80;99.90;;;;;;4950769;28;20054;-77
2023/10/27 10:18:44;;;;;;;45.33;25.38;;;9.90;99.90;;;;;;4952756;28;20049;-77
2023/10/27 10:21:10;;;;;;;40.47;24.55;;;9.90;99.90;;;;;;4941554;28;20178;-78
2023/10/27 10:23:40;;;;;;;44.85;25.10;;;9.90;99.90;;;;;;4953024;28;20126;-77
2023/10/27 10:26:05;;;;;;;44.15;25.58;;;9.90;99.90;;;;;;4971417;28;20129;-78
2023/10/27 10:28:36;;;;;;;42.08;24.20;;;9.90;99.90;;;;;;4966023;28;20505;-76
2023/10/27 10:31:25;;;;;;;44.33;25.23;;;9.90;99.90;;;;;;4947122;28;20492;-87
2023/10/27 10:34:08;;;;;;;49.05;27.88;;;9.90;99.90;;;;;;4964599;28;20054;-76
2023/10/27 10:36:34;;;;;;;43.58;25.10;;;9.90;99.90;;;;;;4954804;28;20050;-76
2023/10/27 10:39:03;;;;;;;47.55;26.15;;;9.90;99.90;;;;;;4971227;28;20038;-76
2023/10/27 10:41:41;;;;;;;47.50;25.95;;;9.90;99.90;;;;;;4939713;28;20039;-76
2023/10/27 10:44:14;;;;;;;43.05;25.23;;;10.00;99.90;;;;;;4955196;28;20038;-76
2023/10/27 10:46:43;;;;;;;44.70;25.58;;;10.00;99.90;;;;;;4969647;28;20385;-74
2023/10/27 10:49:10;;;;;;;43.58;26.45;;;10.00;99.90;;;;;;4955741;28;20054;-75
2023/10/27 10:51:37;;;;;;;49.17;28.05;;;10.00;99.90;;;;;;4987522;28;20148;-75
2023/10/27 10:54:10;;;;;;;51.35;29.08;;;10.00;99.90;;;;;;4945751;28;20046;-74
2023/10/27 10:56:36;;;;;;;47.95;27.15;;;10.10;99.90;;;;;;4971233;28;20050;-74
2023/10/27 10:59:03;;;;;;;48.05;28.13;;;10.10;99.90;;;;;;4955330;28;20043;-75
2023/10/27 11:01:29;;;;;;;56.00;29.58;;;10.10;99.90;;;;;;4953331;28;20058;-75
2023/10/27 11:03:57;;;;;;;47.60;26.80;;;10.10;99.90;;;;;;4955608;28;20070;-75
2023/10/27 11:06:29;;;;;;;53.50;28.33;;;10.10;99.90;;;;;;4971105;28;20556;-75
2023/10/27 11:08:55;;;;;;;54.78;29.58;;;10.10;99.90;;;;;;4971175;28;20039;-75
2023/10/27 11:11:21;;;;;;;49.20;27.90;;;10.10;99.90;;;;;;4938773;28;20133;-74
2023/10/27 11:13:53;;;;;;;61.38;31.27;;;10.10;99.90;;;;;;4950206;28;20055;-73
2023/10/27 11:16:23;;;;;;;45.38;26.02;;;10.10;99.90;;;;;;4948786;28;20054;-75
2023/10/27 11:18:57;;;;;;;45.45;27.38;;;10.10;99.90;;;;;;4936629;28;21464;-75
2023/10/27 11:21:34;;;;;;;53.78;29.02;;;10.10;99.90;;;;;;4949362;28;20035;-75
2023/10/27 11:24:07;;;;;;;46.03;27.50;;;10.20;99.90;;;;;;4934908;28;20046;-75
2023/10/27 11:26:41;;;;;;;44.85;27.40;;;10.20;99.90;;;;;;4980114;28;20046;-75
2023/10/27 11:29:08;;;;;;;52.88;29.48;;;10.20;99.90;;;;;;4968044;28;20046;-75
2023/10/27 11:31:39;;;;;;;49.63;28.88;;;10.10;99.90;;;;;;4970482;28;20500;-75
2023/10/27 11:34:06;;;;;;;50.70;28.95;;;10.10;99.90;;;;;;4946074;28;20053;-75
2023/10/27 11:36:36;;;;;;;51.78;30.10;;;10.20;99.90;;;;;;4966603;28;20078;-74
2023/10/27 11:39:21;;;;;;;51.28;28.90;;;10.20;99.90;;;;;;4965062;28;20035;-75
2023/10/27 11:42:05;;;;;;;42.97;25.35;;;10.20;99.90;;;;;;4962290;28;20113;-75
2023/10/27 11:44:35;;;;;;;46.03;27.58;;;10.20;99.90;;;;;;4966315;28;20117;-75
2023/10/27 11:47:01;;;;;;;48.25;28.40;;;10.20;99.90;;;;;;4944077;29;20065;-75
2023/10/27 11:49:27;;;;;;;49.92;28.83;;;10.20;99.90;;;;;;4950877;28;20496;-75
2023/10/27 11:51:55;;;;;;;50.65;28.88;;;10.20;99.90;;;;;;4952264;28;20047;-75
2023/10/27 11:54:22;;;;;;;52.50;28.98;;;10.20;99.90;;;;;;4959589;28;20050;-75
2023/10/27 11:56:48;;;;;;;53.42;29.55;;;10.20;99.90;;;;;;4961653;28;20547;-73
2023/10/27 11:59:15;;;;;;;51.30;29.23;;;10.20;99.90;;;;;;4962432;28;20122;-74
2023/10/27 12:01:41;;;;;;;52.03;28.77;;;10.20;99.90;;;;;;4961506;28;20047;-74
2023/10/27 12:04:09;;;;;;;54.05;29.50;;;10.20;99.90;;;;;;4947678;28;20054;-75
2023/10/27 12:06:35;;;;;;;46.13;26.60;;;10.20;99.90;;;;;;4934637;28;20042;-75
2023/10/27 12:09:01;;;;;;;44.92;28.50;;;10.20;99.90;;;;;;4943252;28;20046;-75
2023/10/27 12:11:29;;;;;;;45.67;28.15;;;10.20;99.90;;;;;;4961892;28;20038;-75
2023/10/27 12:13:55;;;;;;;59.38;30.85;;;10.20;99.90;;;;;;4931734;28;20055;-76
2023/10/27 12:16:22;;;;;;;50.90;29.10;;;10.20;99.90;;;;;;4947453;28;20543;-75
2023/10/27 12:18:48;;;;;;;45.45;26.70;;;10.30;99.90;;;;;;4964696;28;20496;-75
2023/10/27 12:21:14;;;;;;;41.70;25.85;;;10.20;99.90;;;;;;4942305;28;20047;-74
2023/10/27 12:23:40;;;;;;;42.08;26.20;;;10.30;99.90;;;;;;4946458;28;20038;-75
2023/10/27 12:26:07;;;;;;;43.55;25.95;;;10.20;99.90;;;;;;4964283;28;20043;-74
2023/10/27 12:28:33;;;;;;;57.00;29.00;;;10.30;99.90;;;;;;4953946;28;20093;-75
2023/10/27 12:31:00;;;;;;;43.95;26.95;;;10.30;99.90;;;;;;4965764;28;20049;-74
2023/10/27 12:33:26;;;;;;;42.17;24.58;;;10.20;99.90;;;;;;4950278;28;20444;-74
2023/10/27 12:35:51;;;;;;;54.03;28.00;;;10.30;99.90;;;;;;4949240;28;20054;-75